Time;durP1;ratioP1;P1;durP2;ratioP2;P2;SDS_P1;SDS_P2;PMS_P1;PMS_P2;Temp;Humidity;BMP_temperature;BMP_pressure;BME280_temperature;BME280_humidity;BME280_pressure;Samples;Min_cycle;Max_cycle;Signal;HPM_P1;HPM_P2
2022/12/12 00:01:26;;;;;;;0.30;0.30;;;;;;;11.29;100.00;93955.44;5071608;28;20468;-53
2022/12/12 00:03:55;;;;;;;0.30;0.20;;;;;;;11.52;88.30;93964.88;5071519;28;20557;-53
2022/12/12 00:06:25;;;;;;;0.30;0.20;;;;;;;11.69;80.35;93959.66;5071726;28;20497;-52
2022/12/12 00:08:53;;;;;;;0.30;0.20;;;;;;;11.87;75.88;93976.41;5071183;28;20447;-52
2022/12/12 00:11:23;;;;;;;0.73;0.73;;;;;;;11.41;77.83;93900.72;5071670;28;20440;-52
2022/12/12 00:13:51;;;;;;;0.30;0.20;;;;;;;11.97;79.36;93984.88;5071684;28;20429;-53
2022/12/12 00:16:20;;;;;;;0.30;0.20;;;;;;;12.13;73.14;93971.13;5071356;28;20431;-52
2022/12/12 00:18:48;;;;;;;0.30;0.20;;;;;;;12.13;72.83;93956.00;5071654;28;20922;-52
2022/12/12 00:21:22;;;;;;;0.30;0.20;;;;;;;12.43;74.88;93983.50;5071692;28;20440;-53
2022/12/12 00:23:50;;;;;;;0.30;0.20;;;;;;;12.49;73.84;93990.25;5071433;28;20473;-53
2022/12/12 00:26:21;;;;;;;0.30;0.20;;;;;;;12.25;73.62;93982.72;5074733;28;20419;-53
2022/12/12 00:28:50;;;;;;;0.43;0.40;;;;;;;12.28;69.82;93991.94;5075221;28;20464;-53
2022/12/12 00:31:18;;;;;;;0.30;0.20;;;;;;;11.82;68.92;93950.00;5075096;28;20431;-53
2022/12/12 00:33:48;;;;;;;0.30;0.20;;;;;;;11.91;71.95;93995.94;5074984;28;20479;-53
2022/12/12 00:36:21;;;;;;;0.30;0.20;;;;;;;11.68;73.56;93994.44;5074802;28;20504;-53
2022/12/12 00:38:50;;;;;;;0.53;0.30;;;;;;;11.94;68.29;94009.38;5074051;28;20432;-53
2022/12/12 00:41:19;;;;;;;0.30;0.20;;;;;;;11.90;66.46;94012.97;5074732;28;20447;-53
2022/12/12 00:43:47;;;;;;;0.53;0.50;;;;;;;11.96;68.37;94003.78;5075048;28;20496;-53
2022/12/12 00:46:16;;;;;;;0.40;0.30;;;;;;;12.05;68.65;94000.03;5074800;28;20434;-53
2022/12/12 00:48:45;;;;;;;0.30;0.20;;;;;;;11.98;66.71;94014.84;5074533;28;20423;-53
2022/12/12 00:51:17;;;;;;;0.30;0.20;;;;;;;11.94;66.28;94013.94;5074943;28;20430;-53
2022/12/12 00:53:49;;;;;;;0.30;0.20;;;;;;;11.96;64.10;94017.84;5074107;28;20600;-53
2022/12/12 00:56:19;;;;;;;0.40;0.40;;;;;;;11.97;60.95;94007.97;5074974;28;20415;-53
2022/12/12 00:58:47;;;;;;;0.30;0.20;;;;;;;11.93;61.07;94001.72;5074491;28;21107;-53
2022/12/12 01:01:18;;;;;;;0.30;0.20;;;;;;;11.98;62.79;93999.72;5074784;28;20422;-53
2022/12/12 01:03:46;;;;;;;0.30;0.30;;;;;;;12.05;63.07;93992.06;5074336;28;21013;-54
2022/12/12 01:06:15;;;;;;;0.30;0.30;;;;;;;11.91;62.44;94010.00;5074421;28;20437;-54
2022/12/12 01:08:44;;;;;;;0.30;0.20;;;;;;;11.79;63.69;94011.69;5074620;28;20441;-54
2022/12/12 01:11:15;;;;;;;1.23;1.23;;;;;;;11.59;65.00;94015.63;5074365;28;20418;-54
2022/12/12 01:13:44;;;;;;;0.50;0.40;;;;;;;11.55;66.81;94027.16;5073901;28;20434;-54
2022/12/12 01:16:13;;;;;;;0.30;0.20;;;;;;;11.42;66.26;94013.69;5074247;28;20433;-54
2022/12/12 01:18:42;;;;;;;0.30;0.20;;;;;;;11.48;67.46;94007.16;5073523;28;20465;-54
2022/12/12 01:21:11;;;;;;;0.30;0.20;;;;;;;11.39;64.46;93998.41;5074403;28;20892;-54
2022/12/12 01:23:40;;;;;;;0.70;0.40;;;;;;;11.42;65.17;94016.34;5073945;28;20487;-55
2022/12/12 01:26:11;;;;;;;0.30;0.20;;;;;;;11.30;64.88;94013.50;5074014;28;20431;-55
2022/12/12 01:28:41;;;;;;;0.30;0.20;;;;;;;11.33;63.47;93999.59;5074081;28;20438;-54
2022/12/12 01:31:10;;;;;;;0.30;0.20;;;;;;;11.28;62.61;94002.38;5073935;28;20426;-55
2022/12/12 01:33:39;;;;;;;0.30;0.20;;;;;;;11.20;63.48;94019.06;5073856;28;20441;-54
2022/12/12 01:36:07;;;;;;;0.40;0.30;;;;;;;10.85;64.89;94012.75;5074092;28;20485;-54
2022/12/12 01:38:36;;;;;;;0.37;0.30;;;;;;;11.19;64.28;94025.44;5073584;28;20555;-55
2022/12/12 01:41:05;;;;;;;0.30;0.20;;;;;;;11.25;60.55;94018.94;5073759;28;20435;-54
2022/12/12 01:43:33;;;;;;;0.30;0.30;;;;;;;11.17;62.57;94022.31;5073828;28;20504;-54
2022/12/12 01:46:40;;;;;;;0.30;0.20;;;;;;;11.01;62.37;94028.28;5073260;28;20972;-54
2022/12/12 01:49:15;;;;;;;3.80;0.57;;;;;;;10.70;65.86;94022.94;5068881;28;20523;-54
2022/12/12 01:51:45;;;;;;;0.30;0.20;;;;;;;10.46;67.01;93980.06;5071671;28;20463;-54
2022/12/12 01:54:17;;;;;;;0.30;0.20;;;;;;;10.55;65.74;94033.91;5073332;28;20568;-54
2022/12/12 01:56:47;;;;;;;0.30;0.20;;;;;;;10.38;65.00;94031.09;5074018;28;20433;-54
2022/12/12 01:59:19;;;;;;;0.30;0.30;;;;;;;10.66;63.37;94037.88;5073726;28;20428;-54
2022/12/12 02:01:47;;;;;;;0.30;0.20;;;;;;;10.60;64.96;94041.72;5072760;28;20434;-54
2022/12/12 02:04:18;;;;;;;0.30;0.20;;;;;;;10.57;66.22;94050.28;5073678;28;20468;-54
2022/12/12 02:06:48;;;;;;;0.30;0.20;;;;;;;10.48;65.18;94049.41;5073256;28;20463;-55
2022/12/12 02:09:17;;;;;;;1.90;1.80;;;;;;;10.01;69.35;94045.34;5072710;28;20551;-54
2022/12/12 02:11:49;;;;;;;0.50;0.40;;;;;;;10.14;70.14;94055.19;5073473;28;20521;-54
2022/12/12 02:14:20;;;;;;;0.30;0.30;;;;;;;9.81;69.49;94057.13;5072309;28;21089;-55
2022/12/12 02:17:30;;;;;;;0.30;0.20;;;;;;;9.94;69.32;94051.03;5073339;28;20430;-55
2022/12/12 02:20:31;;;;;;;0.30;0.20;;;;;;;10.22;66.05;94056.34;5073199;28;20438;-54
2022/12/12 02:23:31;;;;;;;0.50;0.50;;;;;;;10.25;64.48;94059.16;5072735;28;20442;-54
2022/12/12 02:26:22;;;;;;;0.30;0.20;;;;;;;10.43;66.17;94058.25;5072647;28;20528;-55
2022/12/12 02:29:24;;;;;;;0.30;0.20;;;;;;;10.18;66.06;94064.88;5039764;28;20945;-54
2022/12/12 02:32:01;;;;;;;0.33;0.27;;;;;;;10.32;65.02;94061.44;5072944;28;20440;-54
2022/12/12 02:34:37;;;;;;;0.30;0.20;;;;;;;10.30;64.44;94066.22;5072832;28;20478;-54
2022/12/12 02:37:11;;;;;;;0.30;0.20;;;;;;;10.11;66.20;94072.41;5072605;28;20450;-54
2022/12/12 02:39:47;;;;;;;0.30;0.20;;;;;;;10.06;65.95;94040.75;5073013;28;20468;-54
2022/12/12 02:42:28;;;;;;;0.30;0.20;;;;;;;9.62;67.03;94010.69;5072586;28;20439;-54
2022/12/12 02:45:00;;;;;;;0.30;0.20;;;;;;;9.84;68.75;94082.22;5072310;28;20502;-54
2022/12/12 02:47:32;;;;;;;1.13;1.13;;;;;;;9.81;67.19;94059.00;5071992;28;20425;-54
2022/12/12 02:50:05;;;;;;;0.30;0.20;;;;;;;9.94;66.62;94076.75;5072718;28;20430;-54
2022/12/12 02:52:34;;;;;;;0.30;0.30;;;;;;;9.82;68.36;94084.34;5071790;28;20445;-54
2022/12/12 02:55:02;;;;;;;0.30;0.20;;;;;;;9.51;70.54;94081.53;5072249;28;20436;-54
2022/12/12 02:57:32;;;;;;;1.07;0.90;;;;;;;9.49;69.92;94083.66;5072289;28;20517;-54
2022/12/12 03:00:04;;;;;;;0.30;0.20;;;;;;;9.49;70.10;94092.38;5072436;28;20893;-54
2022/12/12 03:07:45;;;;;;;4.53;0.40;;;;;;;9.75;67.75;94095.34;5071901;28;20426;-54
2022/12/12 03:09:02;;;;;;;0.30;0.20;;;;;;;9.46;71.53;94111.47;5072455;28;20422;-54
2022/12/12 03:11:39;;;;;;;0.47;0.47;;;;;;;9.41;73.02;94108.16;5072061;28;20437;-54
2022/12/12 03:14:16;;;;;;;1.73;1.13;;;;;;;9.44;72.39;94103.03;5072150;28;20431;-56
2022/12/12 03:16:50;;;;;;;0.40;0.40;;;;;;;9.37;76.64;94113.22;5072319;28;20451;-56
2022/12/12 03:19:26;;;;;;;0.40;0.30;;;;;;;9.32;73.01;94100.09;5071993;28;20474;-56
2022/12/12 03:22:00;;;;;;;0.30;0.20;;;;;;;9.68;73.86;94118.75;5072021;28;20421;-56
2022/12/12 03:24:34;;;;;;;0.30;0.20;;;;;;;9.82;75.28;94106.31;5071900;28;20514;-56
2022/12/12 03:27:10;;;;;;;0.30;0.20;;;;;;;9.68;73.72;94108.19;5071428;28;20430;-55
2022/12/12 03:29:43;;;;;;;0.30;0.20;;;;;;;9.67;76.35;94117.19;5072066;28;20519;-56
2022/12/12 03:32:17;;;;;;;0.40;0.30;;;;;;;9.56;77.31;94107.88;5071876;28;20435;-56
2022/12/12 03:34:52;;;;;;;0.33;0.27;;;;;;;9.66;74.92;94123.56;5071802;28;20960;-55
2022/12/12 03:37:25;;;;;;;0.30;0.30;;;;;;;9.60;75.48;94085.03;5072099;28;20432;-56
2022/12/12 03:39:57;;;;;;;0.30;0.20;;;;;;;9.57;75.38;94090.91;5072019;28;20516;-56
2022/12/12 03:42:30;;;;;;;0.33;0.27;;;;;;;9.81;74.75;94125.16;5071440;28;20436;-55
2022/12/12 03:47:52;;;;;;;0.30;0.20;;;;;;;9.24;75.44;94089.38;5071661;28;20443;-56
2022/12/12 03:50:26;;;;;;;0.30;0.20;;;;;;;9.77;74.38;94111.69;5071861;28;20426;-56
2022/12/12 03:53:00;;;;;;;0.33;0.23;;;;;;;9.67;73.10;94138.34;5071500;28;21004;-56
2022/12/12 03:55:37;;;;;;;0.90;0.90;;;;;;;9.69;76.03;94144.13;5071563;28;20442;-55
2022/12/12 03:58:13;;;;;;;0.30;0.20;;;;;;;9.33;76.01;94077.06;5071546;28;20531;-56
2022/12/12 04:00:44;;;;;;;0.57;0.57;;;;;;;9.96;78.33;94152.13;5074255;28;20435;-56
2022/12/12 04:03:21;;;;;;;0.30;0.20;;;;;;;9.56;80.90;94132.44;5075561;28;20969;-55
2022/12/12 04:12:57;;;;;;;0.30;0.20;;;;;;;9.56;81.19;94118.47;5075756;28;20519;-53
2022/12/12 04:14:45;;;;;;;0.30;0.20;;;;;;;9.15;83.80;94093.78;5049517;28;20440;-54
2022/12/12 04:17:18;;;;;;;0.30;0.20;;;;;;;8.90;85.82;94161.03;5075457;28;20525;-55
2022/12/12 04:28:54;;;;;;;0.60;0.60;;;;;;;9.22;88.80;94139.13;5074474;28;20442;-54
2022/12/12 04:31:26;;;;;;;0.30;0.20;;;;;;;9.05;88.32;94137.00;5075080;28;20509;-54
2022/12/12 04:34:01;;;;;;;0.30;0.20;;;;;;;8.57;87.70;94083.56;5075049;28;20426;-54
2022/12/12 04:36:32;;;;;;;2.30;0.77;;;;;;;8.85;91.62;94153.94;5075275;28;20783;-54
2022/12/12 04:39:04;;;;;;;0.60;0.60;;;;;;;8.82;94.82;94159.81;5074755;28;20424;-55
2022/12/12 04:41:36;;;;;;;0.40;0.40;;;;;;;8.42;96.48;94165.63;5074687;28;20523;-54
2022/12/12 04:44:09;;;;;;;0.40;0.40;;;;;;;8.54;94.47;94160.72;5074696;28;20428;-54
2022/12/12 04:46:41;;;;;;;0.40;0.30;;;;;;;8.64;94.44;94176.44;5074828;28;20434;-56
2022/12/12 04:49:16;;;;;;;0.63;0.63;;;;;;;8.67;96.74;94175.88;5074855;28;20441;-56
2022/12/12 04:51:49;;;;;;;0.40;0.30;;;;;;;8.16;95.86;94183.59;5074069;28;20421;-55
2022/12/12 04:54:27;;;;;;;0.40;0.30;;;;;;;7.95;95.53;94152.41;5073589;28;20471;-55
2022/12/12 04:57:00;;;;;;;0.50;0.30;;;;;;;7.48;95.84;94022.16;5073452;28;20422;-55
2022/12/12 04:59:30;;;;;;;5.50;1.63;;;;;;;7.81;96.03;94139.13;5073623;28;20443;-55
2022/12/12 05:02:04;;;;;;;0.73;0.73;;;;;;;7.32;99.13;93981.22;5073668;28;20430;-55
2022/12/12 05:04:40;;;;;;;0.50;0.50;;;;;;;8.74;95.65;94184.22;5073122;28;20547;-55
2022/12/12 05:07:14;;;;;;;0.60;0.60;;;;;;;8.74;92.52;94171.00;5073282;28;20429;-55
2022/12/12 05:09:44;;;;;;;1.23;1.13;;;;;;;8.76;94.37;94182.06;5073527;28;20461;-55
2022/12/12 05:12:15;;;;;;;0.93;0.93;;;;;;;8.85;91.80;94183.00;5072844;28;20513;-55
2022/12/12 05:14:43;;;;;;;0.53;0.50;;;;;;;8.88;89.08;94147.28;5073499;28;20426;-55
2022/12/12 05:17:17;;;;;;;0.40;0.30;;;;;;;8.10;88.82;94009.75;5073046;28;20426;-55
2022/12/12 05:19:45;;;;;;;2.93;0.40;;;;;;;9.07;90.60;94168.44;5073067;28;20444;-55
2022/12/12 05:22:13;;;;;;;0.97;0.97;;;;;;;9.00;89.99;94186.50;5072948;28;20418;-55
2022/12/12 05:24:43;;;;;;;0.50;0.50;;;;;;;7.53;93.07;94040.56;5072583;28;20442;-55
2022/12/12 05:27:14;;;;;;;0.87;0.83;;;;;;;8.62;95.64;94194.41;5072509;28;20435;-56
2022/12/12 05:29:42;;;;;;;0.40;0.30;;;;;;;8.94;93.74;94199.00;5072619;28;20458;-56
2022/12/12 05:32:10;;;;;;;1.13;1.07;;;;;;;8.45;93.90;94116.75;5072308;28;20418;-55
2022/12/12 05:34:38;;;;;;;0.57;0.40;;;;;;;8.94;91.82;94185.78;5072338;28;20464;-55
2022/12/12 05:37:07;;;;;;;0.70;0.70;;;;;;;9.32;90.78;94205.06;5072522;28;20422;-55
2022/12/12 05:39:35;;;;;;;1.80;1.47;;;;;;;9.34;88.81;94208.97;5072278;28;20430;-54
2022/12/12 05:42:05;;;;;;;1.27;0.70;;;;;;;9.20;90.20;94215.28;5072144;28;20419;-55
2022/12/12 05:44:33;;;;;;;3.00;0.60;;;;;;;9.32;89.19;94216.41;5071620;28;20445;-55
2022/12/12 05:47:01;;;;;;;0.50;0.40;;;;;;;9.33;91.41;94231.22;5071883;28;20562;-55
2022/12/12 05:49:30;;;;;;;0.50;0.47;;;;;;;9.18;93.87;94234.09;5071885;28;20975;-55
2022/12/12 05:51:58;;;;;;;0.80;0.80;;;;;;;8.92;93.92;94182.66;5072085;28;20501;-53
2022/12/12 05:54:26;;;;;;;1.13;1.13;;;;;;;9.44;93.11;94250.34;5029424;28;1240836;-53
2022/12/12 05:56:54;;;;;;;0.47;0.47;;;;;;;9.37;93.32;94239.34;5073107;28;20456;-53
2022/12/12 05:59:24;;;;;;;1.37;0.90;;;;;;;9.26;95.67;94264.38;5072815;28;20520;-53
2022/12/12 06:01:53;;;;;;;1.60;1.60;;;;;;;8.79;96.27;94236.97;5073180;28;20483;-53
2022/12/12 06:04:21;;;;;;;1.47;0.80;;;;;;;9.03;94.45;94260.72;5072891;28;20435;-53
2022/12/12 06:06:55;;;;;;;0.60;0.60;;;;;;;9.19;94.04;94277.94;5072687;28;20477;-53
2022/12/12 06:09:23;;;;;;;1.77;1.67;;;;;;;8.92;94.37;94275.91;5072724;28;20468;-53
2022/12/12 06:11:52;;;;;;;1.97;1.87;;;;;;;8.57;97.22;94280.84;5073044;28;20510;-53
2022/12/12 06:14:20;;;;;;;1.40;1.30;;;;;;;8.39;100.00;94269.16;5073113;28;20940;-53
2022/12/12 06:16:49;;;;;;;1.63;1.53;;;;;;;8.37;100.00;94295.06;5072860;28;20996;-53
2022/12/12 06:19:18;;;;;;;1.10;0.93;;;;;;;8.58;100.00;94295.59;5072468;28;20431;-53
2022/12/12 06:21:46;;;;;;;1.33;1.23;;;;;;;8.61;99.75;94295.84;5072190;28;20466;-53
2022/12/12 06:24:15;;;;;;;0.90;0.87;;;;;;;8.64;100.00;94305.84;5072153;28;20460;-53
2022/12/12 06:26:43;;;;;;;0.50;0.40;;;;;;;8.41;100.00;94311.91;5072411;28;20474;-53
2022/12/12 06:29:13;;;;;;;0.80;0.80;;;;;;;8.79;100.00;94307.53;5072424;28;20437;-53
2022/12/12 06:31:41;;;;;;;0.60;0.43;;;;;;;8.71;98.44;94300.22;5071648;28;20441;-53
2022/12/12 06:34:11;;;;;;;0.53;0.53;;;;;;;8.86;95.86;94282.31;5071781;28;20856;-54
2022/12/12 06:36:40;;;;;;;0.60;0.60;;;;;;;9.04;95.13;94303.78;5071576;28;20434;-54
2022/12/12 06:39:09;;;;;;;0.57;0.53;;;;;;;9.07;93.76;94309.28;5071486;28;20431;-53
2022/12/12 06:41:38;;;;;;;0.43;0.43;;;;;;;8.89;95.58;94313.47;5070113;28;21036;-53
2022/12/12 06:44:07;;;;;;;0.43;0.40;;;;;;;8.97;95.76;94317.34;5069974;28;20435;-53
2022/12/12 06:46:35;;;;;;;0.40;0.40;;;;;;;8.67;97.79;94272.78;5070573;28;20560;-54
2022/12/12 06:49:08;;;;;;;0.40;0.30;;;;;;;9.31;95.91;94309.25;5070870;28;20938;-53
2022/12/12 06:51:43;;;;;;;0.50;0.50;;;;;;;8.70;93.83;94180.56;5071333;28;20426;-53
2022/12/12 06:54:12;;;;;;;3.30;0.80;;;;;;;8.99;93.17;94243.84;5071315;28;20506;-53
2022/12/12 06:56:40;;;;;;;0.50;0.30;;;;;;;9.62;91.94;94315.66;5071608;28;20492;-53
2022/12/12 06:59:15;;;;;;;2.10;1.40;;;;;;;9.38;93.34;94286.69;5071910;28;20427;-53
2022/12/12 07:01:44;;;;;;;0.53;0.53;;;;;;;9.47;96.89;94329.09;5071809;28;20848;-53
2022/12/12 07:04:12;;;;;;;0.57;0.57;;;;;;;9.57;96.77;94326.31;5071479;28;20436;-53
2022/12/12 07:06:42;;;;;;;1.50;1.40;;;;;;;9.69;93.00;94326.66;5071749;28;20897;-53
2022/12/12 07:09:11;;;;;;;1.13;1.13;;;;;;;9.80;92.59;94332.59;5071965;28;20431;-53
2022/12/12 07:11:40;;;;;;;1.07;1.00;;;;;;;9.26;95.16;94343.69;5071922;28;20865;-53
2022/12/12 07:14:10;;;;;;;13.63;4.07;;;;;;;9.04;100.00;94335.50;5071987;28;21011;-53
2022/12/12 07:16:39;;;;;;;1.83;1.80;;;;;;;8.73;98.95;94319.19;5072018;28;20501;-53
2022/12/12 07:19:07;;;;;;;3.43;0.70;;;;;;;9.36;97.80;94359.44;5071725;28;20907;-53
2022/12/12 07:21:35;;;;;;;1.00;1.00;;;;;;;9.42;96.17;94351.13;5071641;28;20453;-53
2022/12/12 07:24:05;;;;;;;4.10;1.77;;;;;;;9.20;95.93;94356.19;5071865;28;20424;-53
2022/12/12 07:26:34;;;;;;;3.63;1.80;;;;;;;9.06;98.71;94330.72;5071307;28;20558;-53
2022/12/12 07:29:04;;;;;;;0.87;0.87;;;;;;;9.39;98.32;94364.91;5071372;28;20515;-53
2022/12/12 07:31:32;;;;;;;3.20;1.03;;;;;;;9.38;95.99;94346.69;5071370;28;20919;-54
2022/12/12 07:34:00;;;;;;;6.83;1.20;;;;;;;9.81;92.42;94355.34;5071242;28;20451;-53
2022/12/12 07:36:29;;;;;;;0.50;0.30;;;;;;;9.89;91.69;94360.75;5071475;28;20522;-53
2022/12/12 07:38:57;;;;;;;1.60;0.63;;;;;;;10.07;90.61;94354.66;5071751;28;20433;-53
2022/12/12 07:41:27;;;;;;;1.03;0.83;;;;;;;10.38;88.08;94383.34;5071420;28;20432;-53
2022/12/12 07:43:55;;;;;;;0.50;0.50;;;;;;;10.50;87.39;94381.03;5071374;28;20446;-53
2022/12/12 07:46:25;;;;;;;1.43;1.40;;;;;;;10.43;86.17;94381.38;5071538;28;20481;-53
2022/12/12 07:48:53;;;;;;;0.40;0.33;;;;;;;10.47;82.94;94384.25;5071705;28;20468;-52
2022/12/12 07:51:23;;;;;;;0.40;0.30;;;;;;;10.97;82.32;94382.56;5071230;28;20434;-53
2022/12/12 07:53:51;;;;;;;0.77;0.60;;;;;;;11.14;77.43;94337.69;5071527;28;20911;-53
2022/12/12 07:56:20;;;;;;;0.50;0.50;;;;;;;11.11;77.66;94388.66;5071326;28;20541;-53
2022/12/12 07:58:50;;;;;;;0.60;0.60;;;;;;;10.96;79.83;94388.94;5071152;28;20439;-54
2022/12/12 08:01:20;;;;;;;6.73;1.07;;;;;;;10.55;77.19;94384.34;5071444;28;20512;-53
2022/12/12 08:03:49;;;;;;;0.40;0.30;;;;;;;10.82;78.27;94399.53;5071519;28;20455;-56
2022/12/12 08:06:18;;;;;;;0.60;0.60;;;;;;;10.92;80.31;94404.66;5071020;28;20474;-53
2022/12/12 08:08:48;;;;;;;6.73;1.43;;;;;;;11.23;80.13;94408.28;5070970;28;20935;-53
2022/12/12 08:11:19;;;;;;;3.67;3.07;;;;;;;10.91;81.73;94402.28;5071118;28;20430;-54
2022/12/12 08:13:49;;;;;;;1.33;1.23;;;;;;;10.82;83.40;94400.34;5071306;28;20432;-54
2022/12/12 08:16:20;;;;;;;0.73;0.50;;;;;;;10.78;83.80;94407.28;5071170;28;20437;-54
2022/12/12 08:18:48;;;;;;;2.73;2.53;;;;;;;10.81;82.89;94412.00;5071285;28;20478;-54
2022/12/12 08:21:18;;;;;;;3.83;3.50;;;;;;;10.83;82.56;94414.34;5071037;28;20433;-54
2022/12/12 08:23:55;;;;;;;1.87;1.60;;;;;;;10.99;81.88;94415.66;5070957;28;20962;-54
2022/12/12 08:26:24;;;;;;;3.23;1.20;;;;;;;11.00;80.08;94413.78;5071302;28;20509;-54
2022/12/12 08:28:54;;;;;;;1.53;1.47;;;;;;;11.41;78.87;94414.56;5070942;28;20494;-54
2022/12/12 08:31:24;;;;;;;0.90;0.60;;;;;;;11.72;77.28;94412.91;5071005;28;20426;-54
2022/12/12 08:33:52;;;;;;;0.80;0.80;;;;;;;12.08;77.76;94400.44;5071050;28;20432;-54
2022/12/12 08:36:23;;;;;;;0.97;0.97;;;;;;;12.45;73.86;94420.56;5070903;28;20419;-53
2022/12/12 08:38:52;;;;;;;1.27;0.93;;;;;;;12.34;71.48;94410.47;5070857;28;20429;-54
2022/12/12 08:41:20;;;;;;;4.70;1.83;;;;;;;12.71;72.22;94418.84;5070925;28;21002;-54
2022/12/12 08:43:49;;;;;;;0.50;0.50;;;;;;;12.54;71.90;94413.44;5070884;28;20915;-54
2022/12/12 08:46:20;;;;;;;0.60;0.60;;;;;;;13.00;70.93;94412.28;5072561;28;20426;-54
2022/12/12 08:48:49;;;;;;;1.47;1.47;;;;;;;12.75;72.65;94411.84;5074558;28;20461;-54
2022/12/12 08:51:18;;;;;;;1.77;1.67;;;;;;;13.04;70.17;94418.56;5074266;28;20437;-55
2022/12/12 08:53:48;;;;;;;6.07;1.77;;;;;;;13.30;69.43;94422.16;5073990;28;20475;-55
2022/12/12 08:56:17;;;;;;;2.23;1.13;;;;;;;13.55;67.58;94421.47;5074547;28;20440;-55
2022/12/12 08:58:46;;;;;;;13.03;1.50;;;;;;;14.53;66.00;94413.75;5074686;28;20444;-55
2022/12/12 09:01:16;;;;;;;5.10;1.77;;;;;;;15.46;64.14;94411.16;5074410;28;20428;-56
2022/12/12 09:03:46;;;;;;;9.40;1.97;;;;;;;14.94;62.49;94405.22;5074204;28;20530;-57
2022/12/12 09:06:15;;;;;;;1.17;1.07;;;;;;;15.22;61.56;94407.16;5074248;28;20914;-57
2022/12/12 09:08:44;;;;;;;6.37;1.30;;;;;;;14.95;57.41;94303.50;5074359;28;20483;-58
2022/12/12 09:11:13;;;;;;;2.80;2.70;;;;;;;15.60;56.90;94395.72;5074534;28;20422;-59
2022/12/12 09:13:41;;;;;;;1.40;1.30;;;;;;;15.56;58.33;94400.16;5074434;28;20536;-59
2022/12/12 09:16:10;;;;;;;0.70;0.57;;;;;;;15.70;56.07;94401.47;5074187;28;20521;-59
2022/12/12 09:18:39;;;;;;;0.80;0.80;;;;;;;15.15;55.82;94406.84;5074067;28;20495;-59
2022/12/12 09:21:17;;;;;;;0.80;0.80;;;;;;;14.95;56.55;94402.22;5074028;28;20437;-59
2022/12/12 09:23:46;;;;;;;1.47;1.40;;;;;;;14.51;60.96;94400.75;5073944;28;20433;-59
2022/12/12 09:26:14;;;;;;;0.47;0.37;;;;;;;14.80;58.55;94393.94;5074379;28;20810;-59
2022/12/12 09:28:42;;;;;;;2.63;1.90;;;;;;;15.72;56.65;94390.44;5073958;28;20476;-59
2022/12/12 09:31:12;;;;;;;2.73;0.90;;;;;;;15.24;56.37;94394.28;5073853;28;20436;-59
2022/12/12 09:33:41;;;;;;;5.90;0.60;;;;;;;15.42;56.37;94383.50;5073959;28;20456;-58
2022/12/12 09:36:12;;;;;;;1.70;0.87;;;;;;;15.79;54.61;94374.69;5074072;28;20497;-59
2022/12/12 09:38:43;;;;;;;0.40;0.23;;;;;;;17.01;53.27;94366.09;5073885;28;20473;-60
2022/12/12 09:41:15;;;;;;;5.60;0.90;;;;;;;17.50;51.73;94362.38;5074271;28;20449;-62
2022/12/12 09:43:50;;;;;;;0.40;0.30;;;;;;;16.15;51.40;94352.75;5073884;28;20425;-61
2022/12/12 09:46:28;;;;;;;0.80;0.80;;;;;;;15.35;55.10;94346.66;5073669;28;20543;-61
2022/12/12 09:49:04;;;;;;;3.70;0.50;;;;;;;15.15;56.15;94344.72;5073484;28;20474;-60
2022/12/12 09:51:33;;;;;;;3.07;1.70;;;;;;;15.63;56.78;94347.00;5073783;28;20783;-60
2022/12/12 09:54:03;;;;;;;0.40;0.30;;;;;;;15.90;57.06;94351.84;5073289;28;21012;-59
2022/12/12 09:56:43;;;;;;;0.50;0.30;;;;;;;16.59;56.91;94357.44;5073242;28;20422;-58
2022/12/12 09:59:15;;;;;;;0.60;0.60;;;;;;;15.64;55.43;94359.22;5072892;28;20433;-58
2022/12/12 10:01:52;;;;;;;0.40;0.30;;;;;;;16.24;53.76;94346.22;5073587;28;20460;-58
2022/12/12 10:04:28;;;;;;;0.40;0.30;;;;;;;17.36;56.70;94337.78;5073034;28;20887;-60
2022/12/12 10:07:10;;;;;;;2.10;0.60;;;;;;;16.98;52.45;94323.94;5072936;28;20469;-60
2022/12/12 10:09:54;;;;;;;1.73;1.43;;;;;;;16.15;54.48;94332.16;5073246;28;20425;-60
2022/12/12 10:12:23;;;;;;;1.57;0.70;;;;;;;15.57;56.20;94324.25;5072863;28;20929;-61
2022/12/12 10:14:54;;;;;;;23.87;0.90;;;;;;;15.78;55.75;94323.16;5073026;28;20418;-58
2022/12/12 10:17:28;;;;;;;0.63;0.63;;;;;;;15.57;55.66;94321.56;5072741;28;20432;-57
2022/12/12 10:20:00;;;;;;;0.50;0.37;;;;;;;15.65;56.03;94324.19;5073048;28;20768;-58
2022/12/12 10:22:35;;;;;;;0.30;0.30;;;;;;;15.23;57.78;94309.16;5072594;28;20802;-59
2022/12/12 10:25:19;;;;;;;0.30;0.20;;;;;;;16.14;59.39;94305.75;5072460;28;20964;-58
2022/12/12 10:27:50;;;;;;;1.40;0.40;;;;;;;16.01;56.66;94304.13;5072339;28;20564;-59
2022/12/12 10:30:19;;;;;;;0.40;0.33;;;;;;;16.75;55.24;94309.41;5072556;28;20898;-58
2022/12/12 10:33:02;;;;;;;0.60;0.60;;;;;;;16.74;54.68;94303.28;5072290;28;20495;-59
2022/12/12 10:35:39;;;;;;;0.50;0.50;;;;;;;16.41;53.12;94289.91;5072836;28;20422;-60
2022/12/12 10:38:25;;;;;;;0.40;0.30;;;;;;;16.13;53.41;94293.47;5072481;28;20429;-59
2022/12/12 10:41:04;;;;;;;0.30;0.20;;;;;;;17.27;52.41;94280.91;5072671;28;20425;-58
2022/12/12 10:43:38;;;;;;;1.00;0.40;;;;;;;17.89;53.06;94271.66;5072243;28;20432;-59
2022/12/12 10:46:17;;;;;;;1.33;0.40;;;;;;;18.70;48.82;94265.81;5072540;28;20418;-61
2022/12/12 10:48:47;;;;;;;0.63;0.63;;;;;;;18.64;49.37;94270.69;5072613;28;20473;-61
2022/12/12 10:51:19;;;;;;;0.60;0.40;;;;;;;18.72;48.18;94221.41;5072231;28;20517;-57
2022/12/12 10:53:48;;;;;;;1.13;0.50;;;;;;;19.07;47.74;94263.69;5072012;28;20476;-58
2022/12/12 10:56:22;;;;;;;0.73;0.50;;;;;;;18.88;48.40;94240.19;5072186;28;21018;-57
2022/12/12 10:58:56;;;;;;;1.43;1.43;;;;;;;17.56;49.96;94202.97;5072297;28;20425;-58
2022/12/12 11:01:27;;;;;;;0.40;0.40;;;;;;;19.06;50.60;94268.25;5072024;28;20426;-56
2022/12/12 11:04:16;;;;;;;0.47;0.47;;;;;;;19.37;47.20;94243.31;5071811;28;20988;-56
2022/12/12 11:06:48;;;;;;;0.60;0.50;;;;;;;19.41;48.05;94241.47;5072093;28;20445;-56
2022/12/12 11:09:19;;;;;;;0.50;0.40;;;;;;;20.23;46.39;94266.28;5071404;28;20564;-55
2022/12/12 11:11:59;;;;;;;5.67;3.70;;;;;;;19.91;45.20;94246.75;5071853;28;20433;-55
2022/12/12 11:14:32;;;;;;;0.60;0.40;;;;;;;20.23;39.10;94234.00;5072047;28;20447;-55
2022/12/12 11:17:00;;;;;;;1.33;1.23;;;;;;;20.35;42.30;94238.41;5071995;28;20540;-55
2022/12/12 11:19:39;;;;;;;1.37;0.57;;;;;;;21.26;36.52;94231.94;5071674;28;20436;-55
2022/12/12 11:22:07;;;;;;;0.40;0.30;;;;;;;21.78;36.45;94235.75;5071596;28;20429;-55
2022/12/12 11:24:41;;;;;;;0.50;0.30;;;;;;;21.71;33.90;94239.13;5071629;28;20512;-55
2022/12/12 11:27:20;;;;;;;0.50;0.50;;;;;;;21.07;33.22;94250.91;5071769;28;20434;-55
2022/12/12 11:29:51;;;;;;;4.93;0.30;;;;;;;20.81;33.34;94235.44;5071518;28;20560;-55
2022/12/12 11:32:22;;;;;;;0.40;0.30;;;;;;;19.85;34.49;94233.97;5071619;28;20429;-56
2022/12/12 11:34:53;;;;;;;0.73;0.60;;;;;;;18.69;34.89;94230.19;5071658;28;20418;-56
2022/12/12 11:37:25;;;;;;;0.50;0.30;;;;;;;17.58;36.15;94240.16;5071800;28;20430;-56
2022/12/12 11:39:56;;;;;;;0.40;0.30;;;;;;;18.74;34.92;94235.28;5071554;28;20444;-56
2022/12/12 11:42:29;;;;;;;0.50;0.40;;;;;;;19.01;34.68;94092.06;5071805;28;20422;-56
2022/12/12 11:45:00;;;;;;;0.40;0.30;;;;;;;20.64;33.31;94229.75;5071430;28;20913;-56
2022/12/12 11:47:37;;;;;;;0.40;0.20;;;;;;;21.06;32.22;94245.84;5071246;28;20457;-60
2022/12/12 11:50:21;;;;;;;1.87;0.73;;;;;;;19.47;32.68;94051.97;5071632;28;20476;-56
2022/12/12 11:52:53;;;;;;;0.90;0.90;;;;;;;18.60;34.85;94234.13;5071377;28;20835;-56
2022/12/12 11:55:34;;;;;;;0.60;0.60;;;;;;;16.51;38.97;94094.25;5071118;28;20437;-56
2022/12/12 11:58:16;;;;;;;0.40;0.30;;;;;;;17.30;37.11;94268.72;5071021;28;20524;-56
2022/12/12 12:00:50;;;;;;;0.40;0.37;;;;;;;17.21;37.21;94260.81;5071132;28;20456;-56
2022/12/12 12:03:27;;;;;;;0.40;0.20;;;;;;;17.44;37.07;94259.22;5070819;28;20803;-56
2022/12/12 12:06:14;;;;;;;0.40;0.33;;;;;;;18.24;36.98;94254.63;5071326;28;20421;-56
2022/12/12 12:08:59;;;;;;;0.40;0.20;;;;;;;18.11;36.51;94249.69;5071042;28;20468;-56
2022/12/12 12:11:34;;;;;;;1.67;0.70;;;;;;;17.50;36.82;94252.53;5071146;28;20424;-56
2022/12/12 12:14:25;;;;;;;0.40;0.30;;;;;;;16.88;38.09;94268.16;5071237;28;20417;-56
2022/12/12 12:17:01;;;;;;;2.20;0.30;;;;;;;17.09;37.47;94248.22;5071431;28;20422;-56
2022/12/12 12:19:39;;;;;;;0.40;0.30;;;;;;;16.71;37.91;94246.97;5071111;28;20425;-56
2022/12/12 12:22:25;;;;;;;0.93;0.93;;;;;;;17.49;36.96;94242.91;5074187;28;20429;-56